METAR LSZS 121120Z 02005KT 310V080 CAVOK 19/03 Q1025 RMK L TL170=